sensor_id;sensor_type;location;lat;lon;timestamp;temperature;humidity
43665;DHT22;29263;48.172;11.484;2023-02-07T00:00:07;-2.80;99.90
43665;DHT22;29263;48.172;11.484;2023-02-07T00:02:33;-2.80;99.90
43665;DHT22;29263;48.172;11.484;2023-02-07T00:04:59;-2.80;99.90
43665;DHT22;29263;48.172;11.484;2023-02-07T00:07:25;-2.80;99.90
43665;DHT22;29263;48.172;11.484;2023-02-07T00:09:51;-2.90;99.90
43665;DHT22;29263;48.172;11.484;2023-02-07T00:12:17;-2.90;99.90
43665;DHT22;29263;48.172;11.484;2023-02-07T00:14:42;-2.90;99.90
43665;DHT22;29263;48.172;11.484;2023-02-07T00:17:08;-2.90;99.90
43665;DHT22;29263;48.172;11.484;2023-02-07T00:19:33;-2.90;99.90
43665;DHT22;29263;48.172;11.484;2023-02-07T00:21:59;-2.90;99.90
43665;DHT22;29263;48.172;11.484;2023-02-07T00:24:25;-3.00;99.90
43665;DHT22;29263;48.172;11.484;2023-02-07T00:26:50;-2.90;99.90
43665;DHT22;29263;48.172;11.484;2023-02-07T00:29:17;-2.90;99.90
43665;DHT22;29263;48.172;11.484;2023-02-07T00:31:43;-3.00;99.90
43665;DHT22;29263;48.172;11.484;2023-02-07T00:34:10;-2.90;99.90
43665;DHT22;29263;48.172;11.484;2023-02-07T00:36:36;-3.00;99.90
43665;DHT22;29263;48.172;11.484;2023-02-07T00:39:20;-2.90;99.90
43665;DHT22;29263;48.172;11.484;2023-02-07T00:41:46;-3.00;99.90
43665;DHT22;29263;48.172;11.484;2023-02-07T00:44:12;-3.00;99.90
43665;DHT22;29263;48.172;11.484;2023-02-07T00:46:38;-3.00;99.90
43665;DHT22;29263;48.172;11.484;2023-02-07T00:49:04;-3.00;99.90
43665;DHT22;29263;48.172;11.484;2023-02-07T00:51:31;-3.00;99.90
43665;DHT22;29263;48.172;11.484;2023-02-07T00:53:57;-3.00;99.90
43665;DHT22;29263;48.172;11.484;2023-02-07T00:56:27;-3.00;99.90
43665;DHT22;29263;48.172;11.484;2023-02-07T00:58:53;-3.10;99.90
43665;DHT22;29263;48.172;11.484;2023-02-07T01:01:19;-3.10;99.90
43665;DHT22;29263;48.172;11.484;2023-02-07T01:03:45;-3.10;99.90
43665;DHT22;29263;48.172;11.484;2023-02-07T01:06:11;-3.20;99.90
43665;DHT22;29263;48.172;11.484;2023-02-07T01:08:36;-3.20;99.90
43665;DHT22;29263;48.172;11.484;2023-02-07T01:11:09;-3.20;99.90
43665;DHT22;29263;48.172;11.484;2023-02-07T01:13:35;-3.20;99.90
43665;DHT22;29263;48.172;11.484;2023-02-07T01:16:01;-3.20;99.90
43665;DHT22;29263;48.172;11.484;2023-02-07T01:18:27;-3.20;99.90
43665;DHT22;29263;48.172;11.484;2023-02-07T01:20:52;-3.30;99.90
43665;DHT22;29263;48.172;11.484;2023-02-07T01:23:18;-3.30;99.90
43665;DHT22;29263;48.172;11.484;2023-02-07T01:25:44;-3.30;99.90
43665;DHT22;29263;48.172;11.484;2023-02-07T01:28:11;-3.40;99.90
43665;DHT22;29263;48.172;11.484;2023-02-07T01:30:41;-3.30;99.90
43665;DHT22;29263;48.172;11.484;2023-02-07T01:33:07;-3.30;99.90
43665;DHT22;29263;48.172;11.484;2023-02-07T01:35:33;-3.30;99.90
43665;DHT22;29263;48.172;11.484;2023-02-07T01:37:59;-3.30;99.90
43665;DHT22;29263;48.172;11.484;2023-02-07T01:40:28;-3.40;99.90
43665;DHT22;29263;48.172;11.484;2023-02-07T01:42:54;-3.40;99.90
43665;DHT22;29263;48.172;11.484;2023-02-07T01:45:34;-3.30;99.90
43665;DHT22;29263;48.172;11.484;2023-02-07T01:48:06;-3.30;99.90
43665;DHT22;29263;48.172;11.484;2023-02-07T01:50:33;-3.30;99.90
43665;DHT22;29263;48.172;11.484;2023-02-07T01:53:01;-3.40;99.90
43665;DHT22;29263;48.172;11.484;2023-02-07T01:55:32;-3.40;99.90
43665;DHT22;29263;48.172;11.484;2023-02-07T01:58:02;-3.40;99.90
43665;DHT22;29263;48.172;11.484;2023-02-07T02:00:28;-3.50;99.90
43665;DHT22;29263;48.172;11.484;2023-02-07T02:02:54;-3.50;99.90
43665;DHT22;29263;48.172;11.484;2023-02-07T02:05:21;-3.50;99.90
43665;DHT22;29263;48.172;11.484;2023-02-07T02:07:48;-3.50;99.90
43665;DHT22;29263;48.172;11.484;2023-02-07T02:10:21;-3.60;99.90
43665;DHT22;29263;48.172;11.484;2023-02-07T02:13:17;-3.60;99.90
43665;DHT22;29263;48.172;11.484;2023-02-07T02:18:56;-3.60;99.90
43665;DHT22;29263;48.172;11.484;2023-02-07T02:27:15;-3.60;99.90
43665;DHT22;29263;48.172;11.484;2023-02-07T02:35:19;-3.60;99.90
43665;DHT22;29263;48.172;11.484;2023-02-07T02:40:50;-3.60;99.90
43665;DHT22;29263;48.172;11.484;2023-02-07T02:43:27;-3.60;99.90
43665;DHT22;29263;48.172;11.484;2023-02-07T02:46:08;-3.60;99.90
43665;DHT22;29263;48.172;11.484;2023-02-07T02:48:36;-3.60;99.90
43665;DHT22;29263;48.172;11.484;2023-02-07T02:51:03;-3.70;99.90
43665;DHT22;29263;48.172;11.484;2023-02-07T02:53:29;-3.70;99.90
43665;DHT22;29263;48.172;11.484;2023-02-07T02:56:19;-3.70;99.90
43665;DHT22;29263;48.172;11.484;2023-02-07T03:09:16;-3.80;99.90
43665;DHT22;29263;48.172;11.484;2023-02-07T03:14:54;-3.90;99.90
43665;DHT22;29263;48.172;11.484;2023-02-07T03:17:28;-3.90;99.90
43665;DHT22;29263;48.172;11.484;2023-02-07T03:19:59;-3.90;99.90
43665;DHT22;29263;48.172;11.484;2023-02-07T03:22:27;-3.90;99.90
43665;DHT22;29263;48.172;11.484;2023-02-07T03:24:56;-3.90;99.90
43665;DHT22;29263;48.172;11.484;2023-02-07T03:27:23;-3.80;99.90
43665;DHT22;29263;48.172;11.484;2023-02-07T03:29:52;-3.80;99.90
43665;DHT22;29263;48.172;11.484;2023-02-07T03:32:29;-3.80;99.90
43665;DHT22;29263;48.172;11.484;2023-02-07T03:37:28;-3.90;99.90
43665;DHT22;29263;48.172;11.484;2023-02-07T03:39:56;-3.90;99.90
43665;DHT22;29263;48.172;11.484;2023-02-07T03:42:37;-3.90;99.90
43665;DHT22;29263;48.172;11.484;2023-02-07T03:45:06;-4.00;99.90
43665;DHT22;29263;48.172;11.484;2023-02-07T03:47:33;-4.00;99.90
43665;DHT22;29263;48.172;11.484;2023-02-07T03:49:58;-4.00;99.90
43665;DHT22;29263;48.172;11.484;2023-02-07T03:52:24;-4.00;99.90
43665;DHT22;29263;48.172;11.484;2023-02-07T03:54:50;-4.10;99.90
43665;DHT22;29263;48.172;11.484;2023-02-07T03:57:15;-4.10;99.90
43665;DHT22;29263;48.172;11.484;2023-02-07T03:59:41;-4.10;99.90
43665;DHT22;29263;48.172;11.484;2023-02-07T04:02:07;-4.10;99.90
43665;DHT22;29263;48.172;11.484;2023-02-07T04:04:32;-4.20;99.90
43665;DHT22;29263;48.172;11.484;2023-02-07T04:06:58;-4.30;99.90
43665;DHT22;29263;48.172;11.484;2023-02-07T04:09:23;-4.30;99.90
43665;DHT22;29263;48.172;11.484;2023-02-07T04:11:50;-4.30;99.90
43665;DHT22;29263;48.172;11.484;2023-02-07T04:14:16;-4.30;99.90
43665;DHT22;29263;48.172;11.484;2023-02-07T04:16:44;-4.30;99.90
43665;DHT22;29263;48.172;11.484;2023-02-07T04:19:10;-4.30;99.90
43665;DHT22;29263;48.172;11.484;2023-02-07T04:21:36;-4.30;99.90
43665;DHT22;29263;48.172;11.484;2023-02-07T04:24:01;-4.30;99.90
43665;DHT22;29263;48.172;11.484;2023-02-07T04:26:27;-4.30;99.90
43665;DHT22;29263;48.172;11.484;2023-02-07T04:28:53;-4.30;99.90
43665;DHT22;29263;48.172;11.484;2023-02-07T04:31:18;-4.30;99.90
43665;DHT22;29263;48.172;11.484;2023-02-07T04:33:44;-4.40;99.90
43665;DHT22;29263;48.172;11.484;2023-02-07T04:36:09;-4.30;99.90
43665;DHT22;29263;48.172;11.484;2023-02-07T04:38:35;-4.40;99.90
43665;DHT22;29263;48.172;11.484;2023-02-07T04:41:03;-4.40;99.90
43665;DHT22;29263;48.172;11.484;2023-02-07T04:43:30;-4.40;99.90
43665;DHT22;29263;48.172;11.484;2023-02-07T04:45:56;-4.50;99.90
43665;DHT22;29263;48.172;11.484;2023-02-07T04:48:22;-4.50;99.90
43665;DHT22;29263;48.172;11.484;2023-02-07T04:50:48;-4.50;99.90
43665;DHT22;29263;48.172;11.484;2023-02-07T04:53:14;-4.50;99.90
43665;DHT22;29263;48.172;11.484;2023-02-07T04:55:40;-4.50;99.90
43665;DHT22;29263;48.172;11.484;2023-02-07T05:00:33;-4.50;99.90
43665;DHT22;29263;48.172;11.484;2023-02-07T05:02:59;-4.60;99.90
43665;DHT22;29263;48.172;11.484;2023-02-07T05:05:25;-4.60;99.90
43665;DHT22;29263;48.172;11.484;2023-02-07T05:07:50;-4.50;99.90
43665;DHT22;29263;48.172;11.484;2023-02-07T05:10:16;-4.60;99.90
43665;DHT22;29263;48.172;11.484;2023-02-07T05:12:42;-4.50;99.90
43665;DHT22;29263;48.172;11.484;2023-02-07T05:15:08;-4.60;99.90
43665;DHT22;29263;48.172;11.484;2023-02-07T05:17:34;-4.70;99.90
43665;DHT22;29263;48.172;11.484;2023-02-07T05:20:03;-4.70;99.90
43665;DHT22;29263;48.172;11.484;2023-02-07T05:22:29;-4.60;99.90
43665;DHT22;29263;48.172;11.484;2023-02-07T05:24:54;-4.70;99.90
43665;DHT22;29263;48.172;11.484;2023-02-07T05:27:20;-4.70;99.90
43665;DHT22;29263;48.172;11.484;2023-02-07T05:29:46;-4.70;99.90
43665;DHT22;29263;48.172;11.484;2023-02-07T05:32:12;-4.80;99.90
43665;DHT22;29263;48.172;11.484;2023-02-07T05:34:57;-4.80;99.90
43665;DHT22;29263;48.172;11.484;2023-02-07T05:37:23;-4.80;99.90
43665;DHT22;29263;48.172;11.484;2023-02-07T05:39:48;-4.80;99.90
43665;DHT22;29263;48.172;11.484;2023-02-07T05:42:14;-4.80;99.90
43665;DHT22;29263;48.172;11.484;2023-02-07T05:44:40;-4.70;99.90
43665;DHT22;29263;48.172;11.484;2023-02-07T05:47:05;-4.70;99.90
43665;DHT22;29263;48.172;11.484;2023-02-07T05:49:31;-4.70;99.90
43665;DHT22;29263;48.172;11.484;2023-02-07T05:51:56;-4.80;99.90
43665;DHT22;29263;48.172;11.484;2023-02-07T05:54:22;-4.80;99.90
43665;DHT22;29263;48.172;11.484;2023-02-07T05:56:48;-4.80;99.90
43665;DHT22;29263;48.172;11.484;2023-02-07T05:59:14;-4.80;99.90
43665;DHT22;29263;48.172;11.484;2023-02-07T06:01:39;-4.80;99.90
43665;DHT22;29263;48.172;11.484;2023-02-07T06:04:05;-4.90;99.90
43665;DHT22;29263;48.172;11.484;2023-02-07T06:06:30;-4.90;99.90
43665;DHT22;29263;48.172;11.484;2023-02-07T06:08:56;-4.90;99.90
43665;DHT22;29263;48.172;11.484;2023-02-07T06:11:22;-4.90;99.90
43665;DHT22;29263;48.172;11.484;2023-02-07T06:13:47;-5.00;99.90
43665;DHT22;29263;48.172;11.484;2023-02-07T06:16:13;-5.00;99.90
43665;DHT22;29263;48.172;11.484;2023-02-07T06:18:38;-5.00;99.90
43665;DHT22;29263;48.172;11.484;2023-02-07T06:21:04;-5.00;99.90
43665;DHT22;29263;48.172;11.484;2023-02-07T06:23:30;-5.00;99.90
43665;DHT22;29263;48.172;11.484;2023-02-07T06:25:55;-5.00;99.90
43665;DHT22;29263;48.172;11.484;2023-02-07T06:28:21;-4.90;99.90
43665;DHT22;29263;48.172;11.484;2023-02-07T06:30:50;-4.90;99.90
43665;DHT22;29263;48.172;11.484;2023-02-07T06:33:15;-4.90;99.90
43665;DHT22;29263;48.172;11.484;2023-02-07T06:35:41;-4.90;99.90
43665;DHT22;29263;48.172;11.484;2023-02-07T06:38:12;-4.90;99.90
43665;DHT22;29263;48.172;11.484;2023-02-07T06:40:38;-4.90;99.90
43665;DHT22;29263;48.172;11.484;2023-02-07T06:43:03;-4.90;99.90
43665;DHT22;29263;48.172;11.484;2023-02-07T06:45:29;-4.90;99.90
43665;DHT22;29263;48.172;11.484;2023-02-07T06:47:55;-4.90;99.90
43665;DHT22;29263;48.172;11.484;2023-02-07T06:50:20;-4.90;99.90
43665;DHT22;29263;48.172;11.484;2023-02-07T06:52:46;-4.90;99.90
43665;DHT22;29263;48.172;11.484;2023-02-07T06:55:11;-4.80;99.90
43665;DHT22;29263;48.172;11.484;2023-02-07T06:57:37;-4.80;99.90
43665;DHT22;29263;48.172;11.484;2023-02-07T07:00:04;-4.80;99.90
43665;DHT22;29263;48.172;11.484;2023-02-07T07:02:29;-4.80;99.90
43665;DHT22;29263;48.172;11.484;2023-02-07T07:04:55;-4.70;99.90
43665;DHT22;29263;48.172;11.484;2023-02-07T07:07:21;-4.70;99.90
43665;DHT22;29263;48.172;11.484;2023-02-07T07:09:46;-4.70;99.90
43665;DHT22;29263;48.172;11.484;2023-02-07T07:12:12;-4.70;99.90
43665;DHT22;29263;48.172;11.484;2023-02-07T07:14:38;-4.70;99.90
43665;DHT22;29263;48.172;11.484;2023-02-07T07:17:04;-4.60;99.90
43665;DHT22;29263;48.172;11.484;2023-02-07T07:19:29;-4.60;99.90
43665;DHT22;29263;48.172;11.484;2023-02-07T07:21:55;-4.60;99.90
43665;DHT22;29263;48.172;11.484;2023-02-07T07:24:21;-4.60;99.90
43665;DHT22;29263;48.172;11.484;2023-02-07T07:26:46;-4.60;99.90
43665;DHT22;29263;48.172;11.484;2023-02-07T07:29:12;-4.50;99.90
43665;DHT22;29263;48.172;11.484;2023-02-07T07:31:37;-4.50;99.90
43665;DHT22;29263;48.172;11.484;2023-02-07T07:34:03;-4.40;99.90
43665;DHT22;29263;48.172;11.484;2023-02-07T07:36:29;-4.40;99.90
43665;DHT22;29263;48.172;11.484;2023-02-07T07:38:55;-4.30;99.90
43665;DHT22;29263;48.172;11.484;2023-02-07T07:41:21;-4.30;99.90
43665;DHT22;29263;48.172;11.484;2023-02-07T07:43:46;-4.20;99.90
43665;DHT22;29263;48.172;11.484;2023-02-07T07:46:12;-4.20;99.90
43665;DHT22;29263;48.172;11.484;2023-02-07T07:48:38;-4.10;99.90
43665;DHT22;29263;48.172;11.484;2023-02-07T07:51:03;-4.10;99.90
43665;DHT22;29263;48.172;11.484;2023-02-07T07:53:29;-4.00;99.90
43665;DHT22;29263;48.172;11.484;2023-02-07T07:55:56;-4.00;99.90
43665;DHT22;29263;48.172;11.484;2023-02-07T07:58:23;-3.90;99.90
43665;DHT22;29263;48.172;11.484;2023-02-07T08:00:49;-3.90;99.90
43665;DHT22;29263;48.172;11.484;2023-02-07T08:03:15;-3.80;99.90
43665;DHT22;29263;48.172;11.484;2023-02-07T08:05:42;-3.80;99.90
43665;DHT22;29263;48.172;11.484;2023-02-07T08:08:08;-3.80;99.90
43665;DHT22;29263;48.172;11.484;2023-02-07T08:10:34;-3.70;99.90
43665;DHT22;29263;48.172;11.484;2023-02-07T08:13:00;-3.70;99.90
43665;DHT22;29263;48.172;11.484;2023-02-07T08:15:25;-3.60;99.90
43665;DHT22;29263;48.172;11.484;2023-02-07T08:17:51;-3.60;99.90
43665;DHT22;29263;48.172;11.484;2023-02-07T08:20:16;-3.50;99.90
43665;DHT22;29263;48.172;11.484;2023-02-07T08:22:42;-3.50;99.90
43665;DHT22;29263;48.172;11.484;2023-02-07T08:25:08;-3.40;99.90
43665;DHT22;29263;48.172;11.484;2023-02-07T08:27:34;-3.40;99.90
43665;DHT22;29263;48.172;11.484;2023-02-07T08:30:00;-3.30;99.90
43665;DHT22;29263;48.172;11.484;2023-02-07T08:32:25;-3.30;99.90
43665;DHT22;29263;48.172;11.484;2023-02-07T08:34:53;-3.30;99.90
43665;DHT22;29263;48.172;11.484;2023-02-07T08:37:18;-3.20;99.90
43665;DHT22;29263;48.172;11.484;2023-02-07T08:39:44;-3.10;99.90
43665;DHT22;29263;48.172;11.484;2023-02-07T08:42:10;-3.00;99.90
43665;DHT22;29263;48.172;11.484;2023-02-07T08:44:36;-3.00;99.90
43665;DHT22;29263;48.172;11.484;2023-02-07T08:47:02;-3.00;99.90
43665;DHT22;29263;48.172;11.484;2023-02-07T08:49:28;-2.90;99.90
43665;DHT22;29263;48.172;11.484;2023-02-07T08:51:54;-2.70;99.90
43665;DHT22;29263;48.172;11.484;2023-02-07T08:54:20;-2.70;99.90
43665;DHT22;29263;48.172;11.484;2023-02-07T08:56:45;-2.60;99.90
43665;DHT22;29263;48.172;11.484;2023-02-07T08:59:11;-2.60;99.90
43665;DHT22;29263;48.172;11.484;2023-02-07T09:01:36;-2.50;99.90
43665;DHT22;29263;48.172;11.484;2023-02-07T09:04:02;-2.40;99.90
43665;DHT22;29263;48.172;11.484;2023-02-07T09:06:28;-2.40;99.90
43665;DHT22;29263;48.172;11.484;2023-02-07T09:08:53;-2.30;99.90
43665;DHT22;29263;48.172;11.484;2023-02-07T09:11:19;-2.20;99.90
43665;DHT22;29263;48.172;11.484;2023-02-07T09:13:44;-2.00;99.90
43665;DHT22;29263;48.172;11.484;2023-02-07T09:16:12;-2.00;99.90
43665;DHT22;29263;48.172;11.484;2023-02-07T09:18:38;-2.00;99.90
43665;DHT22;29263;48.172;11.484;2023-02-07T09:21:04;-1.80;99.90
43665;DHT22;29263;48.172;11.484;2023-02-07T09:23:31;-1.80;99.90
43665;DHT22;29263;48.172;11.484;2023-02-07T09:26:02;-1.70;99.90
43665;DHT22;29263;48.172;11.484;2023-02-07T09:28:28;-1.70;99.90
43665;DHT22;29263;48.172;11.484;2023-02-07T09:30:54;-1.60;99.90
43665;DHT22;29263;48.172;11.484;2023-02-07T09:33:20;-1.50;99.90
43665;DHT22;29263;48.172;11.484;2023-02-07T09:35:47;-1.50;99.90
43665;DHT22;29263;48.172;11.484;2023-02-07T09:38:21;-1.50;99.90
43665;DHT22;29263;48.172;11.484;2023-02-07T09:40:48;-1.40;99.90
43665;DHT22;29263;48.172;11.484;2023-02-07T09:46:04;-1.50;99.90
43665;DHT22;29263;48.172;11.484;2023-02-07T09:49:05;-1.30;99.90
43665;DHT22;29263;48.172;11.484;2023-02-07T09:51:35;-1.40;99.90
43665;DHT22;29263;48.172;11.484;2023-02-07T09:54:06;-1.30;99.90
43665;DHT22;29263;48.172;11.484;2023-02-07T09:56:37;-1.30;99.90
43665;DHT22;29263;48.172;11.484;2023-02-07T09:59:20;-1.20;99.90
43665;DHT22;29263;48.172;11.484;2023-02-07T10:01:49;-1.20;99.90
43665;DHT22;29263;48.172;11.484;2023-02-07T10:06:51;-1.00;99.90
43665;DHT22;29263;48.172;11.484;2023-02-07T10:09:31;-0.90;99.90
43665;DHT22;29263;48.172;11.484;2023-02-07T10:20:37;-0.60;99.90
43665;DHT22;29263;48.172;11.484;2023-02-07T10:30:51;-0.50;99.90
43665;DHT22;29263;48.172;11.484;2023-02-07T10:33:23;-0.50;99.90
43665;DHT22;29263;48.172;11.484;2023-02-07T10:35:52;-0.50;99.90
43665;DHT22;29263;48.172;11.484;2023-02-07T10:41:13;-0.40;99.90
43665;DHT22;29263;48.172;11.484;2023-02-07T10:43:41;-0.30;99.90
43665;DHT22;29263;48.172;11.484;2023-02-07T10:46:09;-0.30;99.90
43665;DHT22;29263;48.172;11.484;2023-02-07T10:48:37;-0.20;99.90
43665;DHT22;29263;48.172;11.484;2023-02-07T10:56:35;0.20;99.90
43665;DHT22;29263;48.172;11.484;2023-02-07T10:59:05;0.30;99.90
43665;DHT22;29263;48.172;11.484;2023-02-07T11:01:32;0.40;99.90
43665;DHT22;29263;48.172;11.484;2023-02-07T11:03:58;0.50;99.90
43665;DHT22;29263;48.172;11.484;2023-02-07T11:06:27;0.50;98.40
43665;DHT22;29263;48.172;11.484;2023-02-07T11:09:16;0.60;99.30
43665;DHT22;29263;48.172;11.484;2023-02-07T11:11:50;0.60;99.90
43665;DHT22;29263;48.172;11.484;2023-02-07T11:14:18;0.70;97.30
43665;DHT22;29263;48.172;11.484;2023-02-07T11:16:56;0.80;97.10
43665;DHT22;29263;48.172;11.484;2023-02-07T11:19:25;0.90;97.00
43665;DHT22;29263;48.172;11.484;2023-02-07T11:22:08;0.90;94.60
43665;DHT22;29263;48.172;11.484;2023-02-07T11:24:35;1.00;93.00
43665;DHT22;29263;48.172;11.484;2023-02-07T11:27:17;0.90;91.70
43665;DHT22;29263;48.172;11.484;2023-02-07T11:29:48;0.80;92.00
43665;DHT22;29263;48.172;11.484;2023-02-07T11:32:15;0.80;90.40
43665;DHT22;29263;48.172;11.484;2023-02-07T11:34:52;0.80;91.80
43665;DHT22;29263;48.172;11.484;2023-02-07T11:37:23;0.70;91.80
43665;DHT22;29263;48.172;11.484;2023-02-07T11:39:52;0.80;94.00
43665;DHT22;29263;48.172;11.484;2023-02-07T11:42:24;0.80;91.10
43665;DHT22;29263;48.172;11.484;2023-02-07T11:44:51;0.90;92.80
43665;DHT22;29263;48.172;11.484;2023-02-07T11:47:25;1.00;89.50
43665;DHT22;29263;48.172;11.484;2023-02-07T11:50:00;0.90;85.60
43665;DHT22;29263;48.172;11.484;2023-02-07T11:52:27;0.90;90.30
43665;DHT22;29263;48.172;11.484;2023-02-07T11:54:56;1.00;88.20
43665;DHT22;29263;48.172;11.484;2023-02-07T11:57:23;1.00;84.30
43665;DHT22;29263;48.172;11.484;2023-02-07T12:00:00;1.00;86.90
43665;DHT22;29263;48.172;11.484;2023-02-07T12:02:32;1.10;84.40
43665;DHT22;29263;48.172;11.484;2023-02-07T12:05:18;1.10;81.30
43665;DHT22;29263;48.172;11.484;2023-02-07T12:07:51;1.10;81.00
43665;DHT22;29263;48.172;11.484;2023-02-07T12:10:37;1.10;81.90
43665;DHT22;29263;48.172;11.484;2023-02-07T12:15:43;1.30;80.00
43665;DHT22;29263;48.172;11.484;2023-02-07T12:27:01;1.50;70.30
43665;DHT22;29263;48.172;11.484;2023-02-07T12:29:48;1.60;71.30
43665;DHT22;29263;48.172;11.484;2023-02-07T12:40:42;1.70;69.60
43665;DHT22;29263;48.172;11.484;2023-02-07T12:57:23;2.10;65.20
43665;DHT22;29263;48.172;11.484;2023-02-07T13:08:18;2.30;64.00
43665;DHT22;29263;48.172;11.484;2023-02-07T13:11:06;2.40;62.30
43665;DHT22;29263;48.172;11.484;2023-02-07T13:13:59;2.40;58.60
43665;DHT22;29263;48.172;11.484;2023-02-07T13:16:33;2.20;59.60
43665;DHT22;29263;48.172;11.484;2023-02-07T13:19:58;2.20;60.30
43665;DHT22;29263;48.172;11.484;2023-02-07T13:22:48;2.40;59.90
43665;DHT22;29263;48.172;11.484;2023-02-07T13:25:22;2.50;59.70
43665;DHT22;29263;48.172;11.484;2023-02-07T13:27:50;2.50;58.60
43665;DHT22;29263;48.172;11.484;2023-02-07T13:30:17;2.40;58.10
43665;DHT22;29263;48.172;11.484;2023-02-07T13:32:44;2.30;59.10
43665;DHT22;29263;48.172;11.484;2023-02-07T13:35:33;2.20;58.00
43665;DHT22;29263;48.172;11.484;2023-02-07T13:38:03;2.30;60.80
43665;DHT22;29263;48.172;11.484;2023-02-07T13:46:46;2.40;58.90
43665;DHT22;29263;48.172;11.484;2023-02-07T13:52:10;2.30;58.50
43665;DHT22;29263;48.172;11.484;2023-02-07T14:00:22;2.50;57.60
43665;DHT22;29263;48.172;11.484;2023-02-07T14:02:52;2.60;57.70
43665;DHT22;29263;48.172;11.484;2023-02-07T14:05:38;2.60;57.90
43665;DHT22;29263;48.172;11.484;2023-02-07T14:10:47;2.60;58.60
43665;DHT22;29263;48.172;11.484;2023-02-07T14:16:02;2.40;59.20
43665;DHT22;29263;48.172;11.484;2023-02-07T14:18:48;2.50;60.20
43665;DHT22;29263;48.172;11.484;2023-02-07T14:37:48;2.80;54.20
43665;DHT22;29263;48.172;11.484;2023-02-07T14:40:28;2.90;53.50
43665;DHT22;29263;48.172;11.484;2023-02-07T14:43:15;3.40;53.70
43665;DHT22;29263;48.172;11.484;2023-02-07T14:54:00;5.60;47.30
43665;DHT22;29263;48.172;11.484;2023-02-07T14:56:47;5.70;46.00
43665;DHT22;29263;48.172;11.484;2023-02-07T14:59:44;5.70;44.20
43665;DHT22;29263;48.172;11.484;2023-02-07T15:02:35;5.00;45.90
43665;DHT22;29263;48.172;11.484;2023-02-07T15:08:07;4.00;49.90
43665;DHT22;29263;48.172;11.484;2023-02-07T15:11:12;3.70;47.90
43665;DHT22;29263;48.172;11.484;2023-02-07T15:13:46;3.30;48.10
43665;DHT22;29263;48.172;11.484;2023-02-07T15:16:19;2.90;48.90
43665;DHT22;29263;48.172;11.484;2023-02-07T15:18:48;2.60;50.20
43665;DHT22;29263;48.172;11.484;2023-02-07T15:21:38;2.40;50.50
43665;DHT22;29263;48.172;11.484;2023-02-07T15:24:30;2.20;52.10
43665;DHT22;29263;48.172;11.484;2023-02-07T15:27:00;2.10;52.30
43665;DHT22;29263;48.172;11.484;2023-02-07T15:29:29;1.90;53.60
43665;DHT22;29263;48.172;11.484;2023-02-07T15:31:55;1.90;55.40
43665;DHT22;29263;48.172;11.484;2023-02-07T15:34:23;1.80;56.60
43665;DHT22;29263;48.172;11.484;2023-02-07T15:36:50;1.80;57.10
43665;DHT22;29263;48.172;11.484;2023-02-07T15:39:22;1.70;57.60
43665;DHT22;29263;48.172;11.484;2023-02-07T15:41:51;1.60;59.70
43665;DHT22;29263;48.172;11.484;2023-02-07T15:44:28;1.50;61.10
43665;DHT22;29263;48.172;11.484;2023-02-07T15:49:29;1.30;63.30
43665;DHT22;29263;48.172;11.484;2023-02-07T15:52:24;1.30;64.10
43665;DHT22;29263;48.172;11.484;2023-02-07T15:54:53;1.20;64.00
43665;DHT22;29263;48.172;11.484;2023-02-07T15:59:48;1.10;65.00
43665;DHT22;29263;48.172;11.484;2023-02-07T16:02:43;1.00;65.00
43665;DHT22;29263;48.172;11.484;2023-02-07T16:05:26;0.90;65.00
43665;DHT22;29263;48.172;11.484;2023-02-07T16:07:52;0.90;65.30
43665;DHT22;29263;48.172;11.484;2023-02-07T16:10:38;0.80;65.90
43665;DHT22;29263;48.172;11.484;2023-02-07T16:13:22;0.80;65.50
43665;DHT22;29263;48.172;11.484;2023-02-07T16:18:41;0.70;65.90
43665;DHT22;29263;48.172;11.484;2023-02-07T16:21:18;0.60;66.10
43665;DHT22;29263;48.172;11.484;2023-02-07T16:23:47;0.50;67.20
43665;DHT22;29263;48.172;11.484;2023-02-07T16:26:19;0.40;67.20
43665;DHT22;29263;48.172;11.484;2023-02-07T16:28:45;0.40;67.50
43665;DHT22;29263;48.172;11.484;2023-02-07T16:31:12;0.30;67.10
43665;DHT22;29263;48.172;11.484;2023-02-07T16:33:38;0.30;67.60
43665;DHT22;29263;48.172;11.484;2023-02-07T16:36:04;0.30;67.50
43665;DHT22;29263;48.172;11.484;2023-02-07T16:38:30;0.20;67.60
43665;DHT22;29263;48.172;11.484;2023-02-07T16:41:04;0.20;67.90
43665;DHT22;29263;48.172;11.484;2023-02-07T16:43:38;0.10;67.80
43665;DHT22;29263;48.172;11.484;2023-02-07T16:46:04;0.10;68.00
43665;DHT22;29263;48.172;11.484;2023-02-07T16:48:30;0.10;66.90
43665;DHT22;29263;48.172;11.484;2023-02-07T16:50:56;0.00;67.10
43665;DHT22;29263;48.172;11.484;2023-02-07T16:53:23;0.00;67.70
43665;DHT22;29263;48.172;11.484;2023-02-07T16:55:50;-0.10;67.80
43665;DHT22;29263;48.172;11.484;2023-02-07T16:58:36;-0.10;67.70
43665;DHT22;29263;48.172;11.484;2023-02-07T17:01:02;-0.20;68.00
43665;DHT22;29263;48.172;11.484;2023-02-07T17:03:28;-0.20;68.20
43665;DHT22;29263;48.172;11.484;2023-02-07T17:05:54;-0.20;67.60
43665;DHT22;29263;48.172;11.484;2023-02-07T17:08:22;-0.20;66.70
43665;DHT22;29263;48.172;11.484;2023-02-07T17:10:57;-0.30;67.40
43665;DHT22;29263;48.172;11.484;2023-02-07T17:13:24;-0.30;68.70
43665;DHT22;29263;48.172;11.484;2023-02-07T17:15:49;-0.30;67.70
43665;DHT22;29263;48.172;11.484;2023-02-07T17:18:15;-0.30;67.70
43665;DHT22;29263;48.172;11.484;2023-02-07T17:20:41;-0.40;68.10
43665;DHT22;29263;48.172;11.484;2023-02-07T17:23:06;-0.40;68.80
43665;DHT22;29263;48.172;11.484;2023-02-07T17:25:32;-0.50;69.20
43665;DHT22;29263;48.172;11.484;2023-02-07T17:27:58;-0.50;68.80
43665;DHT22;29263;48.172;11.484;2023-02-07T17:30:27;-0.50;69.20
43665;DHT22;29263;48.172;11.484;2023-02-07T17:32:53;-0.50;70.10
43665;DHT22;29263;48.172;11.484;2023-02-07T17:35:20;-0.60;70.30
43665;DHT22;29263;48.172;11.484;2023-02-07T17:37:46;-0.60;70.90
43665;DHT22;29263;48.172;11.484;2023-02-07T17:40:32;-0.60;72.10
43665;DHT22;29263;48.172;11.484;2023-02-07T17:42:58;-0.70;72.00
43665;DHT22;29263;48.172;11.484;2023-02-07T17:45:26;-0.70;73.90
43665;DHT22;29263;48.172;11.484;2023-02-07T17:47:52;-0.70;72.30
43665;DHT22;29263;48.172;11.484;2023-02-07T17:50:37;-0.70;72.80
43665;DHT22;29263;48.172;11.484;2023-02-07T17:53:07;-0.70;72.70
43665;DHT22;29263;48.172;11.484;2023-02-07T17:55:34;-0.70;72.60
43665;DHT22;29263;48.172;11.484;2023-02-07T17:58:02;-0.70;72.60
43665;DHT22;29263;48.172;11.484;2023-02-07T18:00:37;-0.70;73.10
43665;DHT22;29263;48.172;11.484;2023-02-07T18:03:04;-0.80;73.30
43665;DHT22;29263;48.172;11.484;2023-02-07T18:05:30;-0.80;72.80
43665;DHT22;29263;48.172;11.484;2023-02-07T18:07:56;-0.80;73.00
43665;DHT22;29263;48.172;11.484;2023-02-07T18:10:24;-0.90;73.00
43665;DHT22;29263;48.172;11.484;2023-02-07T18:12:50;-0.90;73.50
43665;DHT22;29263;48.172;11.484;2023-02-07T18:15:17;-0.90;74.00
43665;DHT22;29263;48.172;11.484;2023-02-07T18:17:44;-0.90;73.60